sensor_id;sensor_type;location;lat;lon;timestamp;pressure;altitude;pressure_sealevel;temperature;humidity
64758;BME280;51193;45.588;5.376;2022-07-23T00:02:05;96348.38;;;27.76;37.71
64758;BME280;51193;45.588;5.376;2022-07-23T00:04:32;96352.94;;;27.75;38.04
64758;BME280;51193;45.588;5.376;2022-07-23T00:06:57;96353.63;;;27.77;37.52
64758;BME280;51193;45.588;5.376;2022-07-23T00:09:22;96348.38;;;27.76;37.50
64758;BME280;51193;45.588;5.376;2022-07-23T00:11:48;96342.69;;;27.79;37.42
64758;BME280;51193;45.588;5.376;2022-07-23T00:14:13;96328.28;;;27.80;37.64
64758;BME280;51193;45.588;5.376;2022-07-23T00:16:39;96311.81;;;27.83;37.91
64758;BME280;51193;45.588;5.376;2022-07-23T00:19:04;96298.25;;;27.84;37.58
64758;BME280;51193;45.588;5.376;2022-07-23T00:21:29;96291.03;;;27.85;37.69
64758;BME280;51193;45.588;5.376;2022-07-23T00:23:55;96294.72;;;27.84;37.44
64758;BME280;51193;45.588;5.376;2022-07-23T00:26:20;96289.34;;;27.84;37.17
64758;BME280;51193;45.588;5.376;2022-07-23T00:28:46;96287.34;;;27.86;37.25
64758;BME280;51193;45.588;5.376;2022-07-23T00:31:11;96306.16;;;27.86;37.21
64758;BME280;51193;45.588;5.376;2022-07-23T00:33:36;96331.06;;;27.88;37.38
64758;BME280;51193;45.588;5.376;2022-07-23T00:36:02;96368.53;;;27.89;37.51
64758;BME280;51193;45.588;5.376;2022-07-23T00:38:28;96383.31;;;27.76;37.37
64758;BME280;51193;45.588;5.376;2022-07-23T00:40:53;96367.13;;;27.67;38.45
64758;BME280;51193;45.588;5.376;2022-07-23T00:43:20;96339.09;;;27.52;38.93
64758;BME280;51193;45.588;5.376;2022-07-23T00:45:47;96337.84;;;27.28;39.17
64758;BME280;51193;45.588;5.376;2022-07-23T00:48:12;96371.97;;;27.08;40.04
64758;BME280;51193;45.588;5.376;2022-07-23T00:50:38;96404.88;;;27.10;39.94
64758;BME280;51193;45.588;5.376;2022-07-23T00:53:04;96404.59;;;27.14;40.74
64758;BME280;51193;45.588;5.376;2022-07-23T00:55:29;96356.56;;;27.10;41.88
64758;BME280;51193;45.588;5.376;2022-07-23T00:57:55;96278.88;;;27.09;41.86
64758;BME280;51193;45.588;5.376;2022-07-23T01:00:21;96254.50;;;27.02;43.23
64758;BME280;51193;45.588;5.376;2022-07-23T01:02:46;96293.81;;;26.94;44.09
64758;BME280;51193;45.588;5.376;2022-07-23T01:05:12;96323.50;;;26.82;44.73
64758;BME280;51193;45.588;5.376;2022-07-23T01:07:38;96357.47;;;26.64;44.78
64758;BME280;51193;45.588;5.376;2022-07-23T01:10:04;96374.44;;;26.55;45.88
64758;BME280;51193;45.588;5.376;2022-07-23T01:12:50;96381.06;;;26.50;47.08
64758;BME280;51193;45.588;5.376;2022-07-23T01:15:15;96366.53;;;26.43;47.86
64758;BME280;51193;45.588;5.376;2022-07-23T01:17:40;96359.78;;;26.39;47.82
64758;BME280;51193;45.588;5.376;2022-07-23T01:20:06;96357.41;;;26.36;47.78
64758;BME280;51193;45.588;5.376;2022-07-23T01:22:32;96356.56;;;26.36;48.28
64758;BME280;51193;45.588;5.376;2022-07-23T01:24:57;96386.34;;;26.23;48.67
64758;BME280;51193;45.588;5.376;2022-07-23T01:27:22;96399.91;;;26.12;48.76
64758;BME280;51193;45.588;5.376;2022-07-23T01:29:48;96385.06;;;25.88;49.96
64758;BME280;51193;45.588;5.376;2022-07-23T01:32:13;96393.97;;;25.79;50.72
64758;BME280;51193;45.588;5.376;2022-07-23T01:34:38;96387.47;;;25.81;50.84
64758;BME280;51193;45.588;5.376;2022-07-23T01:37:07;96390.84;;;25.74;50.42
64758;BME280;51193;45.588;5.376;2022-07-23T01:39:32;96379.97;;;25.65;51.30
64758;BME280;51193;45.588;5.376;2022-07-23T01:41:57;96387.75;;;25.59;51.24
64758;BME280;51193;45.588;5.376;2022-07-23T01:44:23;96388.44;;;25.61;51.08
64758;BME280;51193;45.588;5.376;2022-07-23T01:46:48;96400.31;;;25.68;51.04
64758;BME280;51193;45.588;5.376;2022-07-23T01:49:14;96391.13;;;25.70;50.84
64758;BME280;51193;45.588;5.376;2022-07-23T01:51:40;96385.66;;;25.72;51.14
64758;BME280;51193;45.588;5.376;2022-07-23T01:54:28;96385.47;;;25.74;50.34
64758;BME280;51193;45.588;5.376;2022-07-23T01:56:54;96390.84;;;25.74;51.03
64758;BME280;51193;45.588;5.376;2022-07-23T01:59:21;96384.94;;;25.70;50.86
64758;BME280;51193;45.588;5.376;2022-07-23T02:01:46;96382.53;;;25.67;51.12
64758;BME280;51193;45.588;5.376;2022-07-23T02:04:12;96378.16;;;25.66;51.24
64758;BME280;51193;45.588;5.376;2022-07-23T02:06:37;96379.16;;;25.65;51.23
64758;BME280;51193;45.588;5.376;2022-07-23T02:09:02;96372.50;;;25.59;51.56
64758;BME280;51193;45.588;5.376;2022-07-23T02:11:28;96365.91;;;25.54;51.64
64758;BME280;51193;45.588;5.376;2022-07-23T02:13:53;96365.03;;;25.53;51.50
64758;BME280;51193;45.588;5.376;2022-07-23T02:16:19;96388.88;;;25.56;51.19
64758;BME280;51193;45.588;5.376;2022-07-23T02:18:44;96408.19;;;25.60;51.27
64758;BME280;51193;45.588;5.376;2022-07-23T02:21:11;96397.88;;;25.55;50.75
64758;BME280;51193;45.588;5.376;2022-07-23T02:23:36;96395.91;;;25.57;51.24
64758;BME280;51193;45.588;5.376;2022-07-23T02:26:02;96385.06;;;25.59;50.19
64758;BME280;51193;45.588;5.376;2022-07-23T02:28:27;96406.59;;;25.57;50.61
64758;BME280;51193;45.588;5.376;2022-07-23T02:30:52;96425.06;;;25.50;50.18
64758;BME280;51193;45.588;5.376;2022-07-23T02:33:18;96428.88;;;25.48;50.29
64758;BME280;51193;45.588;5.376;2022-07-23T02:35:43;96418.44;;;25.45;50.62
64758;BME280;51193;45.588;5.376;2022-07-23T02:38:09;96402.22;;;25.46;50.90
64758;BME280;51193;45.588;5.376;2022-07-23T02:40:34;96383.63;;;25.45;51.00
64758;BME280;51193;45.588;5.376;2022-07-23T02:42:59;96394.03;;;25.38;52.66
64758;BME280;51193;45.588;5.376;2022-07-23T02:45:25;96399.53;;;25.37;52.25
64758;BME280;51193;45.588;5.376;2022-07-23T02:47:50;96416.28;;;25.39;52.51
64758;BME280;51193;45.588;5.376;2022-07-23T02:50:16;96453.34;;;25.34;52.43
64758;BME280;51193;45.588;5.376;2022-07-23T02:52:41;96462.34;;;25.23;53.30
64758;BME280;51193;45.588;5.376;2022-07-23T02:55:07;96443.78;;;25.10;53.25
64758;BME280;51193;45.588;5.376;2022-07-23T02:57:33;96439.25;;;25.01;53.14
64758;BME280;51193;45.588;5.376;2022-07-23T02:59:58;96443.19;;;24.97;53.66
64758;BME280;51193;45.588;5.376;2022-07-23T03:02:23;96436.53;;;24.91;53.83
64758;BME280;51193;45.588;5.376;2022-07-23T03:04:49;96417.22;;;24.87;54.12
64758;BME280;51193;45.588;5.376;2022-07-23T03:07:16;96420.19;;;24.84;54.68
64758;BME280;51193;45.588;5.376;2022-07-23T03:09:42;96427.50;;;24.82;54.87
64758;BME280;51193;45.588;5.376;2022-07-23T03:12:08;96431.28;;;24.80;54.41
64758;BME280;51193;45.588;5.376;2022-07-23T03:14:33;96413.53;;;24.79;54.64
64758;BME280;51193;45.588;5.376;2022-07-23T03:16:58;96411.97;;;24.76;54.67
64758;BME280;51193;45.588;5.376;2022-07-23T03:19:25;96398.00;;;24.73;54.47
64758;BME280;51193;45.588;5.376;2022-07-23T03:21:51;96402.25;;;24.75;54.49
64758;BME280;51193;45.588;5.376;2022-07-23T03:24:16;96386.47;;;24.72;54.58
64758;BME280;51193;45.588;5.376;2022-07-23T03:26:43;96382.69;;;24.75;55.38
64758;BME280;51193;45.588;5.376;2022-07-23T03:29:08;96381.56;;;24.77;54.78
64758;BME280;51193;45.588;5.376;2022-07-23T03:31:34;96381.44;;;24.79;55.12
64758;BME280;51193;45.588;5.376;2022-07-23T03:34:00;96392.00;;;24.80;54.08
64758;BME280;51193;45.588;5.376;2022-07-23T03:36:25;96434.09;;;24.78;53.65
64758;BME280;51193;45.588;5.376;2022-07-23T03:38:51;96420.53;;;24.70;53.78
64758;BME280;51193;45.588;5.376;2022-07-23T03:41:17;96416.25;;;24.58;54.27
64758;BME280;51193;45.588;5.376;2022-07-23T03:43:43;96401.09;;;24.47;55.00
64758;BME280;51193;45.588;5.376;2022-07-23T03:46:08;96386.38;;;24.32;54.97
64758;BME280;51193;45.588;5.376;2022-07-23T03:48:34;96399.53;;;24.23;55.10
64758;BME280;51193;45.588;5.376;2022-07-23T03:51:00;96418.13;;;24.25;55.18
64758;BME280;51193;45.588;5.376;2022-07-23T03:53:25;96418.31;;;24.33;55.21
64758;BME280;51193;45.588;5.376;2022-07-23T03:55:51;96439.28;;;24.38;54.83
64758;BME280;51193;45.588;5.376;2022-07-23T03:58:16;96445.34;;;24.40;55.05
64758;BME280;51193;45.588;5.376;2022-07-23T04:00:42;96451.69;;;24.39;54.95
64758;BME280;51193;45.588;5.376;2022-07-23T04:03:07;96456.63;;;24.43;54.47
64758;BME280;51193;45.588;5.376;2022-07-23T04:05:32;96466.84;;;24.38;54.69
64758;BME280;51193;45.588;5.376;2022-07-23T04:07:58;96475.53;;;24.30;54.71
64758;BME280;51193;45.588;5.376;2022-07-23T04:10:23;96465.75;;;24.20;54.74
64758;BME280;51193;45.588;5.376;2022-07-23T04:12:49;96462.34;;;24.18;55.23
64758;BME280;51193;45.588;5.376;2022-07-23T04:15:14;96470.75;;;24.13;55.38
64758;BME280;51193;45.588;5.376;2022-07-23T04:17:40;96489.72;;;24.10;55.45
64758;BME280;51193;45.588;5.376;2022-07-23T04:20:05;96500.66;;;24.07;54.77
64758;BME280;51193;45.588;5.376;2022-07-23T04:22:31;96494.97;;;24.00;54.97
64758;BME280;51193;45.588;5.376;2022-07-23T04:24:56;96499.72;;;23.97;55.30
64758;BME280;51193;45.588;5.376;2022-07-23T04:27:22;96506.16;;;23.94;55.43
64758;BME280;51193;45.588;5.376;2022-07-23T04:29:47;96515.13;;;23.93;55.78
64758;BME280;51193;45.588;5.376;2022-07-23T04:32:12;96516.13;;;23.92;55.49
64758;BME280;51193;45.588;5.376;2022-07-23T04:34:38;96519.03;;;23.89;55.35
64758;BME280;51193;45.588;5.376;2022-07-23T04:37:03;96515.50;;;23.88;55.99
64758;BME280;51193;45.588;5.376;2022-07-23T04:39:28;96525.34;;;23.88;55.81
64758;BME280;51193;45.588;5.376;2022-07-23T04:41:54;96521.97;;;23.86;56.58
64758;BME280;51193;45.588;5.376;2022-07-23T04:44:19;96519.28;;;23.86;57.19
64758;BME280;51193;45.588;5.376;2022-07-23T04:46:45;96525.13;;;23.80;56.23
64758;BME280;51193;45.588;5.376;2022-07-23T04:49:10;96516.47;;;23.76;56.11
64758;BME280;51193;45.588;5.376;2022-07-23T04:51:36;96516.59;;;23.75;56.40
64758;BME280;51193;45.588;5.376;2022-07-23T04:54:01;96530.72;;;23.77;55.95
64758;BME280;51193;45.588;5.376;2022-07-23T04:56:26;96529.84;;;23.76;55.56
64758;BME280;51193;45.588;5.376;2022-07-23T04:58:52;96521.47;;;23.81;55.75
64758;BME280;51193;45.588;5.376;2022-07-23T05:01:18;96511.41;;;23.73;56.50
64758;BME280;51193;45.588;5.376;2022-07-23T05:03:43;96506.91;;;23.74;56.61
64758;BME280;51193;45.588;5.376;2022-07-23T05:06:09;96498.91;;;23.74;56.10
64758;BME280;51193;45.588;5.376;2022-07-23T05:08:34;96498.06;;;23.73;56.16
64758;BME280;51193;45.588;5.376;2022-07-23T05:11:00;96493.09;;;23.80;55.63
64758;BME280;51193;45.588;5.376;2022-07-23T05:13:25;96490.16;;;23.83;55.26
64758;BME280;51193;45.588;5.376;2022-07-23T05:15:50;96481.06;;;23.85;54.94
64758;BME280;51193;45.588;5.376;2022-07-23T05:18:16;96488.69;;;23.90;54.22
64758;BME280;51193;45.588;5.376;2022-07-23T05:20:42;96487.34;;;23.96;53.84
64758;BME280;51193;45.588;5.376;2022-07-23T05:23:07;96490.03;;;23.96;54.01
64758;BME280;51193;45.588;5.376;2022-07-23T05:25:33;96482.97;;;23.95;53.63
64758;BME280;51193;45.588;5.376;2022-07-23T05:27:58;96488.06;;;23.98;53.65
64758;BME280;51193;45.588;5.376;2022-07-23T05:30:24;96485.50;;;23.96;53.08
64758;BME280;51193;45.588;5.376;2022-07-23T05:32:49;96481.72;;;23.99;53.09
64758;BME280;51193;45.588;5.376;2022-07-23T05:35:14;96481.50;;;24.02;52.97
64758;BME280;51193;45.588;5.376;2022-07-23T05:37:40;96486.44;;;24.06;53.32
64758;BME280;51193;45.588;5.376;2022-07-23T05:40:08;96502.69;;;24.15;52.74
64758;BME280;51193;45.588;5.376;2022-07-23T05:42:35;96493.97;;;24.13;53.85
64758;BME280;51193;45.588;5.376;2022-07-23T05:45:01;96494.69;;;24.15;53.67
64758;BME280;51193;45.588;5.376;2022-07-23T05:47:26;96508.63;;;24.18;54.08
64758;BME280;51193;45.588;5.376;2022-07-23T05:49:51;96504.13;;;24.19;53.18
64758;BME280;51193;45.588;5.376;2022-07-23T05:52:17;96501.19;;;24.22;53.09
64758;BME280;51193;45.588;5.376;2022-07-23T05:54:42;96503.75;;;24.23;53.53
64758;BME280;51193;45.588;5.376;2022-07-23T05:57:08;96500.81;;;24.26;53.46
64758;BME280;51193;45.588;5.376;2022-07-23T05:59:34;96500.69;;;24.28;53.14
64758;BME280;51193;45.588;5.376;2022-07-23T06:01:59;96493.53;;;24.28;53.33
64758;BME280;51193;45.588;5.376;2022-07-23T06:04:25;96506.38;;;24.35;52.81
64758;BME280;51193;45.588;5.376;2022-07-23T06:06:50;96499.31;;;24.34;53.31
64758;BME280;51193;45.588;5.376;2022-07-23T06:09:16;96502.38;;;24.29;52.83
64758;BME280;51193;45.588;5.376;2022-07-23T06:11:41;96504.47;;;24.25;53.29
64758;BME280;51193;45.588;5.376;2022-07-23T06:14:07;96510.91;;;24.23;54.00
64758;BME280;51193;45.588;5.376;2022-07-23T06:16:32;96500.69;;;24.28;53.33
64758;BME280;51193;45.588;5.376;2022-07-23T06:18:58;96495.53;;;24.36;53.39
64758;BME280;51193;45.588;5.376;2022-07-23T06:21:23;96490.41;;;24.44;52.84
64758;BME280;51193;45.588;5.376;2022-07-23T06:23:49;96491.84;;;24.48;52.61
64758;BME280;51193;45.588;5.376;2022-07-23T06:26:14;96492.50;;;24.41;52.45
64758;BME280;51193;45.588;5.376;2022-07-23T06:28:39;96487.78;;;24.33;52.30
64758;BME280;51193;45.588;5.376;2022-07-23T06:31:05;96494.41;;;24.18;52.72
64758;BME280;51193;45.588;5.376;2022-07-23T06:33:30;96489.94;;;24.18;52.58
64758;BME280;51193;45.588;5.376;2022-07-23T06:35:56;96492.59;;;24.18;52.91
64758;BME280;51193;45.588;5.376;2022-07-23T06:38:21;96491.94;;;24.26;52.56
64758;BME280;51193;45.588;5.376;2022-07-23T06:40:46;96502.59;;;24.37;52.35
64758;BME280;51193;45.588;5.376;2022-07-23T06:43:12;96499.91;;;24.37;52.44
64758;BME280;51193;45.588;5.376;2022-07-23T06:45:37;96488.00;;;24.41;51.81
64758;BME280;51193;45.588;5.376;2022-07-23T06:48:03;96495.75;;;24.44;51.49
64758;BME280;51193;45.588;5.376;2022-07-23T06:50:29;96490.53;;;24.43;51.52
64758;BME280;51193;45.588;5.376;2022-07-23T06:52:54;96498.09;;;24.38;51.82
64758;BME280;51193;45.588;5.376;2022-07-23T06:55:19;96498.28;;;24.46;52.25
64758;BME280;51193;45.588;5.376;2022-07-23T06:57:45;96507.16;;;24.46;51.94
64758;BME280;51193;45.588;5.376;2022-07-23T07:00:11;96502.31;;;24.52;51.53
64758;BME280;51193;45.588;5.376;2022-07-23T07:02:36;96511.88;;;24.54;51.42
64758;BME280;51193;45.588;5.376;2022-07-23T07:05:02;96504.97;;;24.52;51.47
64758;BME280;51193;45.588;5.376;2022-07-23T07:07:28;96507.25;;;24.56;51.44
64758;BME280;51193;45.588;5.376;2022-07-23T07:09:53;96503.34;;;24.60;51.98
64758;BME280;51193;45.588;5.376;2022-07-23T07:12:18;96510.00;;;24.66;51.63
64758;BME280;51193;45.588;5.376;2022-07-23T07:14:44;96512.81;;;24.64;51.50
64758;BME280;51193;45.588;5.376;2022-07-23T07:17:09;96512.56;;;24.67;51.52
64758;BME280;51193;45.588;5.376;2022-07-23T07:19:36;96509.38;;;24.74;51.43
64758;BME280;51193;45.588;5.376;2022-07-23T07:22:02;96511.94;;;24.85;51.60
64758;BME280;51193;45.588;5.376;2022-07-23T07:24:27;96511.72;;;24.88;51.36
64758;BME280;51193;45.588;5.376;2022-07-23T07:26:54;96504.84;;;24.95;51.44
64758;BME280;51193;45.588;5.376;2022-07-23T07:29:19;96519.91;;;24.96;51.17
64758;BME280;51193;45.588;5.376;2022-07-23T07:31:45;96509.94;;;24.98;51.11
64758;BME280;51193;45.588;5.376;2022-07-23T07:34:10;96510.06;;;24.97;51.21
64758;BME280;51193;45.588;5.376;2022-07-23T07:36:35;96517.09;;;24.98;50.99
64758;BME280;51193;45.588;5.376;2022-07-23T07:39:03;96521.06;;;25.03;51.09
64758;BME280;51193;45.588;5.376;2022-07-23T07:41:30;96521.41;;;24.89;51.93
64758;BME280;51193;45.588;5.376;2022-07-23T07:43:55;96529.75;;;24.96;51.85
64758;BME280;51193;45.588;5.376;2022-07-23T07:46:20;96526.72;;;25.10;51.22
64758;BME280;51193;45.588;5.376;2022-07-23T07:48:49;96527.06;;;25.17;50.67
64758;BME280;51193;45.588;5.376;2022-07-23T07:51:15;96530.50;;;25.28;50.65
64758;BME280;51193;45.588;5.376;2022-07-23T07:53:40;96530.84;;;25.35;50.82
64758;BME280;51193;45.588;5.376;2022-07-23T07:56:06;96536.38;;;25.53;50.08
64758;BME280;51193;45.588;5.376;2022-07-23T07:58:31;96531.19;;;25.61;49.85
64758;BME280;51193;45.588;5.376;2022-07-23T08:00:56;96536.72;;;25.60;49.53
64758;BME280;51193;45.588;5.376;2022-07-23T08:03:22;96532.06;;;25.62;49.27
64758;BME280;51193;45.588;5.376;2022-07-23T08:05:47;96536.72;;;25.69;48.74
64758;BME280;51193;45.588;5.376;2022-07-23T08:08:13;96543.41;;;25.85;48.55
64758;BME280;51193;45.588;5.376;2022-07-23T08:10:40;96527.25;;;25.96;48.53
64758;BME280;51193;45.588;5.376;2022-07-23T08:13:05;96534.63;;;26.14;48.37
64758;BME280;51193;45.588;5.376;2022-07-23T08:15:31;96535.47;;;26.24;47.90
64758;BME280;51193;45.588;5.376;2022-07-23T08:17:57;96535.31;;;26.35;47.57
64758;BME280;51193;45.588;5.376;2022-07-23T08:20:23;96537.44;;;26.41;47.28
64758;BME280;51193;45.588;5.376;2022-07-23T08:23:00;96540.00;;;26.43;47.16
64758;BME280;51193;45.588;5.376;2022-07-23T08:25:36;96533.25;;;26.58;47.18
64758;BME280;51193;45.588;5.376;2022-07-23T08:28:03;96539.16;;;26.81;47.50
64758;BME280;51193;45.588;5.376;2022-07-23T08:30:30;96529.38;;;27.00;47.51
64758;BME280;51193;45.588;5.376;2022-07-23T08:33:07;96531.59;;;27.14;46.73
64758;BME280;51193;45.588;5.376;2022-07-23T08:35:38;96538.94;;;27.22;45.21
64758;BME280;51193;45.588;5.376;2022-07-23T08:38:06;96533.84;;;27.28;44.44
64758;BME280;51193;45.588;5.376;2022-07-23T08:40:35;96533.25;;;27.35;44.38
64758;BME280;51193;45.588;5.376;2022-07-23T08:43:06;96545.50;;;27.47;44.95
64758;BME280;51193;45.588;5.376;2022-07-23T08:45:36;96532.56;;;27.60;44.80
64758;BME280;51193;45.588;5.376;2022-07-23T08:48:02;96544.66;;;27.74;45.38
64758;BME280;51193;45.588;5.376;2022-07-23T08:50:28;96545.59;;;27.93;44.87
64758;BME280;51193;45.588;5.376;2022-07-23T08:52:54;96545.09;;;28.07;43.21
64758;BME280;51193;45.588;5.376;2022-07-23T08:55:21;96548.69;;;27.98;43.26
64758;BME280;51193;45.588;5.376;2022-07-23T08:57:49;96544.25;;;28.06;43.22
64758;BME280;51193;45.588;5.376;2022-07-23T09:00:15;96547.66;;;28.26;42.82
64758;BME280;51193;45.588;5.376;2022-07-23T09:02:42;96547.56;;;28.36;41.51
64758;BME280;51193;45.588;5.376;2022-07-23T09:05:09;96548.44;;;28.37;42.12
64758;BME280;51193;45.588;5.376;2022-07-23T09:07:37;96548.81;;;28.42;41.92
64758;BME280;51193;45.588;5.376;2022-07-23T09:10:10;96550.19;;;28.46;41.48
64758;BME280;51193;45.588;5.376;2022-07-23T09:12:37;96544.81;;;28.46;41.16
64758;BME280;51193;45.588;5.376;2022-07-23T09:15:08;96545.25;;;28.51;41.65
64758;BME280;51193;45.588;5.376;2022-07-23T09:17:38;96549.91;;;28.49;42.44
64758;BME280;51193;45.588;5.376;2022-07-23T09:20:15;96557.53;;;28.72;42.25
64758;BME280;51193;45.588;5.376;2022-07-23T09:22:50;96556.56;;;28.99;41.49
64758;BME280;51193;45.588;5.376;2022-07-23T09:25:18;96547.50;;;29.26;41.13
64758;BME280;51193;45.588;5.376;2022-07-23T09:30:14;96548.13;;;29.46;41.14
64758;BME280;51193;45.588;5.376;2022-07-23T09:32:41;96550.19;;;29.52;40.16
64758;BME280;51193;45.588;5.376;2022-07-23T09:35:07;96555.50;;;29.70;39.83
64758;BME280;51193;45.588;5.376;2022-07-23T09:37:32;96557.75;;;29.75;39.68
64758;BME280;51193;45.588;5.376;2022-07-23T09:40:06;96562.97;;;29.76;39.75
64758;BME280;51193;45.588;5.376;2022-07-23T09:42:32;96565.22;;;29.89;39.58
64758;BME280;51193;45.588;5.376;2022-07-23T09:44:58;96566.97;;;30.15;39.67
64758;BME280;51193;45.588;5.376;2022-07-23T09:47:30;96560.66;;;30.32;39.09
64758;BME280;51193;45.588;5.376;2022-07-23T09:50:09;96571.03;;;30.19;39.16
64758;BME280;51193;45.588;5.376;2022-07-23T09:52:43;96570.31;;;30.08;38.78
64758;BME280;51193;45.588;5.376;2022-07-23T09:55:10;96566.22;;;29.88;38.86
64758;BME280;51193;45.588;5.376;2022-07-23T09:57:35;96563.59;;;29.70;38.72
64758;BME280;51193;45.588;5.376;2022-07-23T10:00:05;96560.97;;;29.52;39.49
64758;BME280;51193;45.588;5.376;2022-07-23T10:02:34;96563.31;;;29.55;39.04
64758;BME280;51193;45.588;5.376;2022-07-23T10:05:01;96560.53;;;29.65;38.61
64758;BME280;51193;45.588;5.376;2022-07-23T10:07:27;96566.06;;;29.89;38.63
64758;BME280;51193;45.588;5.376;2022-07-23T10:09:55;96575.53;;;30.02;37.94
64758;BME280;51193;45.588;5.376;2022-07-23T10:12:20;96576.91;;;30.06;37.72
64758;BME280;51193;45.588;5.376;2022-07-23T10:14:51;96572.50;;;29.97;37.72
64758;BME280;51193;45.588;5.376;2022-07-23T10:17:17;96569.94;;;29.87;38.03
64758;BME280;51193;45.588;5.376;2022-07-23T10:19:44;96572.28;;;29.90;37.41
64758;BME280;51193;45.588;5.376;2022-07-23T10:22:12;96563.50;;;29.88;38.13
64758;BME280;51193;45.588;5.376;2022-07-23T10:24:49;96571.63;;;29.96;38.26
64758;BME280;51193;45.588;5.376;2022-07-23T10:32:34;96573.31;;;29.63;38.78
64758;BME280;51193;45.588;5.376;2022-07-23T10:37:39;96578.72;;;29.37;39.22
64758;BME280;51193;45.588;5.376;2022-07-23T10:40:16;96578.56;;;29.38;39.47
64758;BME280;51193;45.588;5.376;2022-07-23T10:42:46;96583.31;;;29.44;39.03
64758;BME280;51193;45.588;5.376;2022-07-23T10:45:31;96576.03;;;29.37;39.40
64758;BME280;51193;45.588;5.376;2022-07-23T10:48:13;96581.69;;;29.52;38.99
64758;BME280;51193;45.588;5.376;2022-07-23T10:50:39;96576.16;;;29.87;38.47
64758;BME280;51193;45.588;5.376;2022-07-23T10:55:39;96571.16;;;30.60;37.68
64758;BME280;51193;45.588;5.376;2022-07-23T10:58:05;96580.44;;;30.82;36.38
64758;BME280;51193;45.588;5.376;2022-07-23T11:00:32;96567.47;;;30.85;36.72
64758;BME280;51193;45.588;5.376;2022-07-23T11:03:00;96569.69;;;31.06;36.08
64758;BME280;51193;45.588;5.376;2022-07-23T11:05:46;96572.88;;;31.18;36.23
64758;BME280;51193;45.588;5.376;2022-07-23T11:16:08;96584.41;;;31.84;34.99
64758;BME280;51193;45.588;5.376;2022-07-23T11:24:18;96577.06;;;31.54;35.06
64758;BME280;51193;45.588;5.376;2022-07-23T11:26:53;96577.19;;;31.68;34.91
64758;BME280;51193;45.588;5.376;2022-07-23T11:31:55;96580.72;;;31.77;34.18
64758;BME280;51193;45.588;5.376;2022-07-23T11:34:33;96577.91;;;31.54;34.53
64758;BME280;51193;45.588;5.376;2022-07-23T11:37:00;96577.06;;;31.54;34.95
64758;BME280;51193;45.588;5.376;2022-07-23T11:39:28;96573.69;;;31.52;35.57
64758;BME280;51193;45.588;5.376;2022-07-23T11:41:55;96574.78;;;31.82;34.97
64758;BME280;51193;45.588;5.376;2022-07-23T11:44:28;96569.59;;;32.12;35.18
64758;BME280;51193;45.588;5.376;2022-07-23T11:47:10;96575.94;;;31.96;34.63
64758;BME280;51193;45.588;5.376;2022-07-23T11:49:43;96573.03;;;31.97;34.76
64758;BME280;51193;45.588;5.376;2022-07-23T11:52:17;96571.34;;;32.04;34.36
64758;BME280;51193;45.588;5.376;2022-07-23T11:57:13;96562.78;;;32.24;34.26
64758;BME280;51193;45.588;5.376;2022-07-23T11:59:39;96566.78;;;32.05;34.59
64758;BME280;51193;45.588;5.376;2022-07-23T12:02:06;96565.66;;;31.75;34.68
64758;BME280;51193;45.588;5.376;2022-07-23T12:04:43;96568.13;;;31.45;35.51
64758;BME280;51193;45.588;5.376;2022-07-23T12:07:42;96567.31;;;31.20;35.50
64758;BME280;51193;45.588;5.376;2022-07-23T12:10:15;96567.81;;;31.15;35.86
64758;BME280;51193;45.588;5.376;2022-07-23T12:12:56;96567.34;;;31.03;36.06
64758;BME280;51193;45.588;5.376;2022-07-23T12:15:34;96572.53;;;31.05;35.53
64758;BME280;51193;45.588;5.376;2022-07-23T12:18:03;96572.53;;;30.97;35.59
64758;BME280;51193;45.588;5.376;2022-07-23T12:20:36;96563.44;;;31.06;35.47
64758;BME280;51193;45.588;5.376;2022-07-23T12:23:05;96568.69;;;31.16;35.95
64758;BME280;51193;45.588;5.376;2022-07-23T12:25:36;96566.13;;;31.22;35.17
64758;BME280;51193;45.588;5.376;2022-07-23T12:30:49;96565.69;;;31.66;35.15
64758;BME280;51193;45.588;5.376;2022-07-23T12:33:25;96571.28;;;31.73;34.57
64758;BME280;51193;45.588;5.376;2022-07-23T12:35:53;96567.22;;;31.77;34.65
64758;BME280;51193;45.588;5.376;2022-07-23T12:38:21;96562.16;;;31.66;34.39
64758;BME280;51193;45.588;5.376;2022-07-23T12:40:49;96568.75;;;31.63;34.49
64758;BME280;51193;45.588;5.376;2022-07-23T12:43:33;96566.56;;;31.67;33.86
64758;BME280;51193;45.588;5.376;2022-07-23T12:46:12;96561.44;;;31.80;33.91
64758;BME280;51193;45.588;5.376;2022-07-23T12:48:53;96564.31;;;31.79;33.98
64758;BME280;51193;45.588;5.376;2022-07-23T12:51:24;96565.97;;;31.88;33.22
64758;BME280;51193;45.588;5.376;2022-07-23T12:53:56;96560.53;;;31.96;33.34
64758;BME280;51193;45.588;5.376;2022-07-23T12:56:28;96561.69;;;32.10;33.19
64758;BME280;51193;45.588;5.376;2022-07-23T12:58:57;96556.06;;;32.12;33.23
64758;BME280;51193;45.588;5.376;2022-07-23T13:01:34;96564.06;;;32.05;33.61
64758;BME280;51193;45.588;5.376;2022-07-23T13:06:38;96557.53;;;31.83;33.76
64758;BME280;51193;45.588;5.376;2022-07-23T13:09:06;96559.94;;;31.78;33.26
64758;BME280;51193;45.588;5.376;2022-07-23T13:11:32;96560.16;;;31.60;33.96
64758;BME280;51193;45.588;5.376;2022-07-23T13:13:58;96558.50;;;31.51;33.54
64758;BME280;51193;45.588;5.376;2022-07-23T13:16:26;96561.34;;;31.41;33.59
64758;BME280;51193;45.588;5.376;2022-07-23T13:18:52;96557.31;;;31.37;34.25
64758;BME280;51193;45.588;5.376;2022-07-23T13:21:17;96559.00;;;31.29;34.09
64758;BME280;51193;45.588;5.376;2022-07-23T13:23:43;96556.13;;;31.39;34.20
64758;BME280;51193;45.588;5.376;2022-07-23T13:26:09;96549.72;;;31.48;34.08
64758;BME280;51193;45.588;5.376;2022-07-23T13:28:34;96541.78;;;31.47;33.75
64758;BME280;51193;45.588;5.376;2022-07-23T13:31:00;96543.25;;;31.58;33.46
64758;BME280;51193;45.588;5.376;2022-07-23T13:33:25;96546.44;;;31.70;33.44
64758;BME280;51193;45.588;5.376;2022-07-23T13:35:52;96540.00;;;31.71;33.31
64758;BME280;51193;45.588;5.376;2022-07-23T13:38:19;96535.59;;;31.78;33.45